Time;durP1;ratioP1;P1;durP2;ratioP2;P2;SDS_P1;SDS_P2;PMS_P1;PMS_P2;Temp;Humidity;BMP_temperature;BMP_pressure;BME280_temperature;BME280_humidity;BME280_pressure;Samples;Min_cycle;Max_cycle;Signal;HPM_P1;HPM_P2
2023/03/17 00:00:43;;;;;;;8.48;2.60;;;13.10;99.90;;;;;;4914329;29;20047;-72
2023/03/17 00:03:21;;;;;;;4.65;2.10;;;13.10;99.90;;;;;;4908590;29;20043;-73
2023/03/17 00:05:47;;;;;;;4.15;1.88;;;13.10;99.90;;;;;;4901176;29;20037;-72
2023/03/17 00:08:20;;;;;;;6.22;1.90;;;13.10;99.90;;;;;;4911671;29;20038;-73
2023/03/17 00:10:46;;;;;;;6.60;1.95;;;13.10;99.90;;;;;;4911583;29;20040;-74
2023/03/17 00:13:12;;;;;;;6.10;2.25;;;13.00;99.90;;;;;;4912932;29;20016;-74
2023/03/17 00:15:38;;;;;;;4.13;1.83;;;13.00;99.90;;;;;;4901068;29;20033;-74
2023/03/17 00:18:11;;;;;;;3.78;1.80;;;13.00;99.90;;;;;;4915182;29;20055;-74
2023/03/17 00:20:36;;;;;;;5.05;1.63;;;12.90;99.90;;;;;;4923757;29;20043;-74
2023/03/17 00:23:03;;;;;;;4.05;1.90;;;12.90;99.90;;;;;;4920596;29;20488;-73
2023/03/17 00:25:32;;;;;;;4.43;1.90;;;12.90;99.90;;;;;;4916667;29;20058;-73
2023/03/17 00:27:59;;;;;;;5.28;2.10;;;12.90;99.90;;;;;;4914950;29;20083;-73
2023/03/17 00:30:26;;;;;;;6.03;2.15;;;;;;;;;;4923063;29;20025;-74
2023/03/17 00:32:54;;;;;;;7.32;1.75;;;;;;;;;;4923281;29;20119;-74
2023/03/17 00:35:24;;;;;;;5.60;1.80;;;;;;;;;;4918965;29;20096;-74
2023/03/17 00:37:52;;;;;;;6.30;2.00;;;;;;;;;;4916385;29;20032;-74
2023/03/17 00:40:20;;;;;;;5.68;2.30;;;;;;;;;;4919438;29;20068;-74
2023/03/17 00:42:46;;;;;;;5.93;2.00;;;;;;;;;;4919506;29;20079;-75
2023/03/17 00:45:13;;;;;;;5.22;1.98;;;;;;;;;;4911903;29;20047;-74
2023/03/17 00:47:39;;;;;;;8.05;2.42;;;;;;;;;;4918794;29;20041;-74
2023/03/17 00:50:06;;;;;;;5.53;1.88;;;;;;;;;;4915228;29;20079;-74
2023/03/17 00:52:32;;;;;;;5.65;1.92;;;;;;;;;;4909693;29;20020;-73
2023/03/17 00:54:58;;;;;;;5.35;1.92;;;;;;;;;;4911509;29;20071;-73
2023/03/17 00:57:25;;;;;;;5.00;1.58;;;;;;;;;;4917358;29;20043;-73
2023/03/17 00:59:51;;;;;;;6.57;1.80;;;;;;;;;;4915046;29;20043;-74
2023/03/17 01:02:17;;;;;;;5.18;1.88;;;;;;;;;;4912929;29;20052;-74
2023/03/17 01:04:44;;;;;;;6.65;1.95;;;;;;;;;;4913322;29;20032;-73
2023/03/17 01:07:10;;;;;;;2.88;1.70;;;;;;;;;;4915981;29;20089;-74
2023/03/17 01:09:37;;;;;;;4.00;1.52;;;;;;;;;;4919677;29;20453;-75
2023/03/17 01:12:03;;;;;;;4.72;2.08;;;;;;;;;;4918002;29;20393;-74
2023/03/17 01:14:29;;;;;;;3.95;1.70;;;;;;;;;;4916846;29;20501;-74
2023/03/17 01:16:55;;;;;;;5.60;1.77;;;;;;;;;;4910720;29;20064;-74
2023/03/17 01:19:21;;;;;;;4.00;1.90;;;;;;;;;;4910539;29;20032;-73
2023/03/17 01:21:47;;;;;;;4.10;1.70;;;;;;;;;;4913189;29;20032;-74
2023/03/17 01:24:13;;;;;;;4.97;1.80;;;;;;;;;;4903138;29;20081;-74
2023/03/17 01:26:40;;;;;;;8.55;1.90;;;;;;;;;;4903828;29;20080;-74
2023/03/17 01:29:06;;;;;;;4.72;1.80;;;;;;;;;;4904004;29;20028;-74
2023/03/17 01:31:33;;;;;;;4.07;1.50;;;;;;;;;;4918408;29;20055;-74
2023/03/17 01:33:59;;;;;;;7.22;1.90;;;;;;;;;;4914573;29;20034;-75
2023/03/17 01:36:25;;;;;;;7.03;1.80;;;;;;;;;;4918094;29;20024;-75
2023/03/17 01:38:51;;;;;;;3.85;1.80;;;;;;;;;;4921426;29;20036;-74
2023/03/17 01:41:19;;;;;;;6.68;1.70;;;;;;;;;;4916209;29;20028;-74
2023/03/17 01:43:45;;;;;;;4.22;1.77;;;;;;;;;;4921689;29;20028;-74
2023/03/17 01:46:24;;;;;;;7.10;2.20;;;;;;;;;;4905439;29;20055;-74
2023/03/17 01:49:08;;;;;;;8.60;2.10;;;;;;;;;;4917106;29;20036;-74
2023/03/17 01:51:40;;;;;;;5.70;1.55;;;;;;;;;;4911003;29;20056;-73
2023/03/17 01:54:09;;;;;;;5.03;1.83;;;;;;;;;;4902117;29;20040;-73
2023/03/17 01:56:36;;;;;;;6.57;1.90;;;;;;;;;;4913634;29;20031;-73
2023/03/17 01:59:05;;;;;;;3.78;1.60;;;;;;;;;;4920620;29;20076;-73
2023/03/17 02:01:36;;;;;;;7.07;1.90;;;;;;;;;;4917424;29;20032;-73
2023/03/17 02:04:03;;;;;;;4.35;2.05;;;;;;;;;;4919738;29;20026;-73
2023/03/17 02:06:29;;;;;;;7.72;2.00;;;;;;;;;;4911392;29;20063;-73
2023/03/17 02:08:55;;;;;;;5.10;1.77;;;;;;;;;;4902650;29;20029;-73
2023/03/17 02:11:22;;;;;;;3.28;1.80;;;;;;;;;;4901659;29;20029;-73
2023/03/17 02:13:49;;;;;;;5.00;1.90;;;;;;;;;;4902278;29;20032;-73
2023/03/17 02:16:16;;;;;;;5.50;2.45;;;;;;;;;;4913835;29;20087;-74
2023/03/17 02:18:42;;;;;;;4.80;2.10;;;;;;;;;;4911764;29;20375;-74
2023/03/17 02:21:27;;;;;;;6.93;2.50;;;;;;;;;;4903387;29;20064;-74
2023/03/17 02:23:53;;;;;;;7.53;2.25;;;;;;;;;;4912004;29;20032;-74
2023/03/17 02:26:21;;;;;;;6.63;2.65;;;;;;;;;;4908474;29;20053;-74
2023/03/17 02:28:47;;;;;;;6.80;2.20;;;;;;;;;;4912331;29;20036;-74
2023/03/17 02:31:14;;;;;;;8.13;2.28;;;;;;;;;;4921587;29;20024;-74
2023/03/17 02:33:41;;;;;;;6.40;2.45;;;;;;;;;;4921972;29;20455;-74
2023/03/17 02:36:08;;;;;;;5.63;2.00;;;;;;;;;;4917854;29;20031;-74
2023/03/17 02:38:34;;;;;;;7.82;2.22;;;;;;;;;;4917100;29;20405;-74
2023/03/17 02:41:00;;;;;;;6.60;2.10;;;;;;;;;;4906381;29;20024;-74
2023/03/17 02:43:26;;;;;;;6.05;2.30;;;;;;;;;;4920832;29;20051;-74
2023/03/17 02:45:52;;;;;;;4.47;2.10;;;;;;;;;;4916674;29;20053;-74
2023/03/17 02:48:19;;;;;;;4.40;2.20;;;;;;;;;;4908078;29;20024;-74
2023/03/17 02:50:45;;;;;;;4.22;1.85;;;;;;;;;;4918263;29;20104;-74
2023/03/17 02:53:11;;;;;;;5.43;2.25;;;;;;;;;;4921636;29;20024;-74
2023/03/17 02:55:38;;;;;;;5.88;1.92;;;;;;;;;;4921322;29;20024;-74
2023/03/17 02:58:04;;;;;;;7.75;2.13;;;;;;;;;;4920354;29;20096;-74
2023/03/17 03:00:30;;;;;;;7.07;2.20;;;;;;;;;;4905087;29;20032;-74
2023/03/17 03:02:56;;;;;;;4.95;1.92;;;;;;;;;;4903173;29;20032;-74
2023/03/17 03:05:22;;;;;;;5.40;2.25;;;;;;;;;;4919740;29;20556;-74
2023/03/17 03:07:48;;;;;;;5.22;1.90;;;;;;;;;;4914866;29;20043;-74
2023/03/17 03:10:14;;;;;;;3.03;1.77;;;;;;;;;;4916216;29;20031;-73
2023/03/17 03:12:40;;;;;;;8.65;2.75;;;;;;;;;;4912303;29;20028;-73
2023/03/17 03:15:08;;;;;;;7.38;2.30;;;;;;;;;;4916646;29;20386;-73
2023/03/17 03:17:34;;;;;;;4.72;1.98;;;;;;;;;;4902512;29;20028;-73
2023/03/17 03:20:01;;;;;;;3.85;1.98;;;;;;;;;;4919755;29;20028;-73
2023/03/17 03:22:27;;;;;;;5.22;1.95;;;;;;;;;;4910683;29;20036;-73
2023/03/17 03:24:53;;;;;;;3.17;1.65;;;;;;;;;;4917523;29;20112;-73
2023/03/17 03:27:19;;;;;;;6.93;2.13;;;;;;;;;;4910952;29;20047;-73
2023/03/17 03:29:45;;;;;;;5.22;2.00;;;;;;;;;;4920393;29;20032;-75
2023/03/17 03:32:11;;;;;;;5.10;2.13;;;;;;;;;;4920248;29;20036;-75
2023/03/17 03:34:37;;;;;;;5.25;1.95;;;;;;;;;;4915225;29;20080;-75
2023/03/17 03:37:03;;;;;;;6.85;2.22;;;;;;;;;;4918429;29;20039;-75
2023/03/17 03:39:29;;;;;;;5.10;2.00;;;;;;;;;;4917647;29;20060;-75
2023/03/17 03:41:57;;;;;;;7.60;1.95;;;;;;;;;;4917679;29;20477;-74
2023/03/17 03:44:24;;;;;;;5.55;1.83;;;;;;;;;;4912619;29;20024;-74
2023/03/17 03:46:50;;;;;;;6.95;1.67;;;;;;;;;;4919325;29;20078;-74
2023/03/17 03:49:16;;;;;;;6.80;2.17;;;;;;;;;;4909223;29;20509;-73
2023/03/17 03:51:42;;;;;;;5.90;2.05;;;;;;;;;;4919122;29;20047;-74
2023/03/17 03:54:08;;;;;;;4.25;1.67;;;;;;;;;;4923026;29;20020;-74
2023/03/17 03:56:34;;;;;;;4.45;1.70;;;;;;;;;;4908905;29;20025;-74
2023/03/17 03:59:00;;;;;;;4.50;2.08;;;;;;;;;;4904577;29;20477;-74
2023/03/17 04:01:27;;;;;;;5.95;2.13;;;;;;;;;;4908035;29;20048;-74
2023/03/17 04:03:53;;;;;;;6.70;1.70;;;;;;;;;;4905512;29;20088;-74
2023/03/17 04:06:19;;;;;;;6.25;1.73;;;;;;;;;;4904230;29;20557;-74
2023/03/17 04:08:45;;;;;;;3.60;1.88;;;;;;;;;;4904284;29;20120;-73
2023/03/17 04:11:11;;;;;;;6.40;2.13;;;;;;;;;;4905379;29;20482;-73
2023/03/17 04:13:37;;;;;;;5.75;2.30;;;;;;;;;;4905678;29;20060;-73
2023/03/17 04:16:03;;;;;;;6.25;2.10;;;;;;;;;;4913603;29;20031;-74
2023/03/17 04:18:30;;;;;;;5.20;2.10;;;;;;;;;;4913962;29;20035;-73
2023/03/17 04:20:56;;;;;;;4.18;2.05;;;;;;;;;;4922482;29;20044;-73
2023/03/17 04:23:22;;;;;;;4.85;1.75;;;;;;;;;;4923790;29;20515;-73
2023/03/17 04:25:50;;;;;;;6.80;2.28;;;;;;;;;;4923842;29;20123;-74
2023/03/17 04:28:16;;;;;;;3.95;1.80;;;;;;;;;;4923852;29;20058;-74
2023/03/17 04:30:42;;;;;;;5.57;1.88;;;;;;;;;;4923543;29;20032;-73
2023/03/17 04:33:08;;;;;;;3.63;1.75;;;;;;;;;;4923407;29;20076;-73
2023/03/17 04:35:34;;;;;;;5.07;1.88;;;;;;;;;;4914796;29;20456;-73
2023/03/17 04:38:00;;;;;;;4.25;1.92;;;;;;;;;;4912026;29;20062;-73
2023/03/17 04:40:26;;;;;;;3.78;1.77;;;;;;;;;;4923699;29;20044;-73
2023/03/17 04:42:52;;;;;;;5.55;1.92;;;;;;;;;;4919178;29;20024;-74
2023/03/17 04:45:18;;;;;;;6.25;1.95;;;;;;;;;;4909462;29;20060;-73
2023/03/17 04:47:47;;;;;;;5.53;1.95;;;;;;;;;;4920137;29;20052;-73
2023/03/17 04:50:13;;;;;;;6.50;2.13;;;;;;;;;;4922147;29;20038;-73
2023/03/17 04:52:40;;;;;;;3.17;1.83;;;;;;;;;;4908861;29;20043;-73
2023/03/17 04:55:07;;;;;;;8.40;2.00;;;;;;;;;;4910450;29;20032;-73
2023/03/17 04:57:33;;;;;;;5.32;1.90;;;;;;;;;;4922333;29;20083;-72
2023/03/17 04:59:59;;;;;;;4.45;1.98;;;;;;;;;;4921931;29;20036;-73
2023/03/17 05:02:25;;;;;;;5.47;1.90;;;;;;;;;;4922920;29;20040;-74
2023/03/17 05:04:52;;;;;;;5.22;2.17;;;;;;;;;;4923241;29;20028;-74
2023/03/17 05:07:18;;;;;;;7.55;1.92;;;;;;;;;;4922713;29;20028;-74
2023/03/17 05:09:44;;;;;;;6.78;1.90;;;;;;;;;;4923108;29;20433;-74
2023/03/17 05:12:10;;;;;;;5.57;2.25;;;;;;;;;;4923096;29;20040;-74
2023/03/17 05:14:36;;;;;;;5.22;1.90;;;;;;;;;;4923464;29;20036;-73
2023/03/17 05:17:02;;;;;;;4.53;2.00;;;;;;;;;;4922862;29;20619;-73
2023/03/17 05:19:29;;;;;;;7.40;2.15;;;;;;;;;;4922303;29;20055;-73
2023/03/17 05:21:55;;;;;;;5.35;1.85;;;;;;;;;;4907439;29;20032;-73
2023/03/17 05:24:21;;;;;;;5.32;2.20;;;;;;;;;;4919010;29;20527;-73
2023/03/17 05:26:46;;;;;;;6.68;2.53;;;;;;;;;;4922416;29;20032;-73
2023/03/17 05:29:13;;;;;;;3.90;1.50;;;;;;;;;;4922572;29;20024;-73
2023/03/17 05:31:39;;;;;;;5.82;2.38;;;;;;;;;;4919601;29;20024;-73
2023/03/17 05:34:05;;;;;;;5.97;1.95;;;;;;;;;;4922531;29;20028;-73
2023/03/17 05:36:32;;;;;;;5.32;2.40;;;;;;;;;;4922556;29;20024;-73
2023/03/17 05:38:58;;;;;;;5.15;1.90;;;;;;;;;;4922453;29;20016;-73
2023/03/17 05:41:25;;;;;;;5.28;2.08;;;;;;;;;;4920955;29;20028;-72
2023/03/17 05:43:51;;;;;;;4.88;2.13;;;;;;;;;;4921688;29;20473;-73
2023/03/17 05:46:17;;;;;;;4.45;1.95;;;;;;;;;;4906153;29;20060;-73
2023/03/17 05:48:43;;;;;;;8.75;2.55;;;;;;;;;;4913579;29;20060;-73
2023/03/17 05:51:09;;;;;;;5.55;2.20;;;;;;;;;;4917880;29;20032;-73
2023/03/17 05:53:35;;;;;;;5.95;2.55;;;;;;;;;;4915724;29;20036;-74
2023/03/17 05:56:02;;;;;;;6.82;3.08;;;;;;;;;;4918414;29;20133;-73
2023/03/17 05:58:28;;;;;;;6.18;2.78;;;;;;;;;;4915288;29;20036;-73
2023/03/17 06:00:54;;;;;;;7.03;3.35;;;;;;;;;;4906079;29;20655;-73
2023/03/17 06:03:21;;;;;;;6.40;2.90;;;;;;;;;;4905638;29;20092;-73
2023/03/17 06:05:47;;;;;;;6.03;3.00;;;;;;;;;;4921943;29;20111;-74
2023/03/17 06:08:13;;;;;;;7.22;2.50;;;;;;;;;;4921342;29;20067;-74
2023/03/17 06:10:40;;;;;;;5.70;2.88;;;;;;;;;;4919567;29;20066;-73
2023/03/17 06:13:06;;;;;;;4.70;2.25;;;;;;;;;;4914725;29;20032;-73
2023/03/17 06:15:32;;;;;;;5.32;2.67;;;;;;;;;;4921210;29;20078;-74
2023/03/17 06:17:58;;;;;;;6.63;2.50;;;;;;;;;;4916455;29;20035;-74
2023/03/17 06:20:24;;;;;;;6.40;2.50;;;;;;;;;;4914911;29;20410;-74
2023/03/17 06:22:50;;;;;;;4.20;2.50;;;;;;;;;;4916379;29;20065;-73
2023/03/17 06:25:16;;;;;;;5.57;2.35;;;;;;;;;;4919105;29;20084;-73
2023/03/17 06:27:43;;;;;;;4.70;2.13;;;;;;;;;;4908916;29;20040;-73
2023/03/17 06:30:10;;;;;;;5.30;2.15;;;;;;;;;;4920141;29;20024;-73
2023/03/17 06:32:36;;;;;;;5.25;2.40;;;;;;;;;;4915213;29;20036;-73
2023/03/17 06:35:04;;;;;;;6.53;2.13;;;;;;;;;;4921539;29;20079;-73
2023/03/17 06:37:30;;;;;;;4.50;2.42;;;;;;;;;;4913146;29;20038;-73
2023/03/17 06:39:57;;;;;;;6.55;2.30;;;;;;;;;;4920373;29;20040;-73
2023/03/17 06:42:23;;;;;;;6.07;2.40;;;;;;;;;;4920282;29;20489;-73
2023/03/17 06:44:51;;;;;;;5.68;2.40;;;;;;;;;;4917172;29;20028;-74
2023/03/17 06:47:17;;;;;;;5.07;2.15;;;;;;;;;;4902044;29;20084;-74
2023/03/17 06:49:43;;;;;;;4.78;2.22;;;;;;;;;;4919352;29;20464;-74
2023/03/17 06:52:09;;;;;;;5.00;2.70;;;;;;;;;;4919415;29;20028;-73
2023/03/17 06:54:35;;;;;;;6.10;2.75;;;;;;;;;;4910531;29;20166;-74
2023/03/17 06:57:01;;;;;;;7.75;2.88;;;;;;;;;;4913657;29;20505;-73
2023/03/17 06:59:29;;;;;;;6.00;2.67;;;;;;;;;;4913821;29;20128;-73
2023/03/17 07:01:55;;;;;;;4.28;2.40;;;;;;;;;;4914916;29;20036;-72
2023/03/17 07:04:21;;;;;;;6.75;2.80;;;;;;;;;;4913978;29;20039;-74
2023/03/17 07:06:47;;;;;;;6.05;2.63;;;;;;;;;;4915458;29;20033;-72
2023/03/17 07:09:14;;;;;;;6.60;2.85;;;;;;;;;;4914957;29;20036;-72
2023/03/17 07:11:40;;;;;;;5.03;2.67;;;;;;;;;;4917935;29;20032;-73
2023/03/17 07:14:06;;;;;;;6.80;2.58;;;;;;;;;;4908698;29;20028;-72
2023/03/17 07:16:32;;;;;;;7.47;2.90;;;;;;;;;;4909105;29;20050;-74
2023/03/17 07:18:58;;;;;;;5.13;2.45;;;;;;;;;;4912439;29;20485;-72
2023/03/17 07:21:24;;;;;;;7.78;2.28;;;;;;;;;;4914283;29;20063;-73
2023/03/17 07:23:51;;;;;;;5.85;2.63;;;;;;;;;;4916557;29;20028;-72
2023/03/17 07:26:17;;;;;;;6.60;2.55;;;;;;;;;;4918697;29;20032;-70
2023/03/17 07:28:43;;;;;;;8.13;2.97;;;;;;;;;;4917580;29;20035;-71
2023/03/17 07:31:12;;;;;;;8.25;3.20;;;;;;;;;;4915246;29;20371;-74
2023/03/17 07:33:39;;;;;;;7.35;3.03;;;;;;;;;;4915030;29;20035;-73
2023/03/17 07:36:06;;;;;;;7.18;2.92;;;;;;;;;;4913242;29;20115;-72
2023/03/17 07:38:32;;;;;;;7.18;2.72;;;;;;;;;;4918928;29;20040;-72
2023/03/17 07:40:59;;;;;;;4.70;2.38;;;;;;;;;;4917303;29;20045;-74
2023/03/17 07:43:26;;;;;;;6.72;2.97;;;;;;;;;;4913045;29;20025;-74
2023/03/17 07:45:52;;;;;;;7.55;2.75;;;;;;;;;;4912319;29;20040;-75
2023/03/17 07:48:18;;;;;;;6.20;2.65;;;;;;;;;;4911871;29;20088;-73
2023/03/17 07:50:44;;;;;;;9.75;3.00;;;;;;;;;;4908337;29;20021;-76
2023/03/17 07:53:10;;;;;;;8.70;3.05;;;;;;;;;;4916304;29;20096;-75
2023/03/17 07:55:37;;;;;;;7.57;2.53;;;;;;;;;;4917243;29;20040;-83
2023/03/17 07:58:03;;;;;;;5.22;2.40;;;;;;;;;;4907267;29;20037;-89
2023/03/17 08:00:30;;;;;;;7.78;3.00;;;;;;;;;;4913854;29;20040;-78
2023/03/17 08:02:56;;;;;;;6.90;3.10;;;;;;;;;;4901485;29;20040;-76
2023/03/17 08:05:23;;;;;;;5.65;2.88;;;;;;;;;;4899785;29;20039;-78
2023/03/17 08:07:49;;;;;;;6.20;2.50;;;;;;;;;;4900144;29;20056;-77
2023/03/17 08:10:15;;;;;;;6.72;3.30;;;;;;;;;;4900444;29;20024;-82
2023/03/17 08:12:41;;;;;;;5.30;2.88;;;;;;;;;;4900305;29;20021;-79
2023/03/17 08:15:08;;;;;;;9.68;2.80;;;;;;;;;;4901207;29;20031;-78
2023/03/17 08:17:35;;;;;;;7.80;2.50;;;;;;;;;;4918257;29;20044;-79
2023/03/17 08:20:01;;;;;;;8.40;2.67;;;;;;;;;;4916131;29;20052;-80
2023/03/17 08:22:27;;;;;;;5.85;2.65;;;;;;;;;;4908476;29;20071;-79
2023/03/17 08:24:54;;;;;;;7.07;2.65;;;;;;;;;;4917754;29;20435;-79
2023/03/17 08:27:21;;;;;;;6.30;2.88;;;;;;;;;;4909865;29;20021;-77
2023/03/17 08:29:47;;;;;;;5.55;2.67;;;;;;;;;;4904694;29;20409;-77
2023/03/17 08:32:13;;;;;;;7.28;2.75;;;;;;;;;;4917250;29;20024;-79
2023/03/17 08:34:39;;;;;;;6.03;2.75;;;;;;;;;;4903397;29;20119;-77
2023/03/17 08:37:06;;;;;;;4.53;2.58;;;;;;;;;;4914300;29;20036;-76
2023/03/17 08:39:34;;;;;;;7.85;2.67;;;;;;;;;;4911075;29;20493;-76
2023/03/17 08:42:00;;;;;;;7.75;3.08;;;;;;;;;;4911366;29;20028;-75
2023/03/17 08:44:26;;;;;;;8.32;3.20;;;;;;;;;;4921222;29;20028;-76
2023/03/17 08:46:52;;;;;;;4.80;2.70;;;;;;;;;;4911940;29;20044;-74
2023/03/17 08:49:18;;;;;;;6.05;2.65;;;;;;;;;;4919180;29;20035;-76
2023/03/17 08:51:45;;;;;;;6.22;2.65;;;;;;;;;;4910711;29;20025;-77
2023/03/17 08:54:11;;;;;;;8.45;2.58;;;;;;;;;;4904800;29;20039;-76
2023/03/17 08:56:39;;;;;;;5.97;2.80;;;;;;;;;;4904971;29;20021;-74
2023/03/17 08:59:05;;;;;;;6.25;2.78;;;;;;;;;;4904220;29;20039;-73
2023/03/17 09:01:33;;;;;;;6.75;2.97;;;;;;;;;;4905275;29;20024;-75
2023/03/17 09:03:59;;;;;;;8.52;3.30;;;;;;;;;;4913045;29;20056;-75
2023/03/17 09:06:26;;;;;;;8.38;2.90;;;;;;;;;;4917549;29;20025;-75
2023/03/17 09:08:54;;;;;;;6.65;2.72;;;;;;;;;;4901200;29;20030;-74
2023/03/17 09:11:22;;;;;;;5.00;3.13;;;;;;;;;;4906480;29;22044;-74
2023/03/17 09:13:49;;;;;;;8.57;3.08;;;;;;;;;;4921110;29;20551;-74
2023/03/17 09:16:16;;;;;;;7.75;3.20;;;;;;;;;;4912447;29;20388;-74
2023/03/17 09:18:42;;;;;;;7.68;2.88;;;;;;;;;;4902343;29;20040;-75
2023/03/17 09:21:10;;;;;;;5.07;2.65;;;;;;;;;;4911139;29;20024;-76
2023/03/17 09:23:36;;;;;;;6.15;2.70;;;;;;;;;;4903846;29;20032;-76
2023/03/17 09:26:02;;;;;;;8.80;3.05;;;;;;;;;;4917706;29;20060;-76
2023/03/17 09:28:29;;;;;;;7.68;2.60;;;;;;;;;;4914412;29;20485;-75
2023/03/17 09:31:00;;;;;;;9.25;2.70;;;;;;;;;;4921283;29;20021;-82
2023/03/17 09:33:26;;;;;;;4.82;2.55;;;;;;;;;;4910943;29;20031;-80
2023/03/17 09:35:53;;;;;;;6.57;2.90;;;;;;;;;;4912979;29;20033;-81
2023/03/17 09:38:20;;;;;;;7.90;2.95;;;;;;;;;;4919541;29;20032;-77
2023/03/17 09:40:47;;;;;;;7.10;2.85;;;;;;;;;;4918180;29;20456;-81
2023/03/17 09:43:23;;;;;;;6.22;2.50;;;;;;;;;;4909246;29;20038;-76
2023/03/17 09:45:50;;;;;;;7.05;2.50;;;;;;;;;;4919983;29;20092;-78
2023/03/17 09:48:28;;;;;;;6.30;2.40;;;;;;;;;;4919190;29;20046;-79
2023/03/17 09:50:58;;;;;;;6.88;2.30;;;;;;;;;;4913112;29;20036;-77
2023/03/17 09:53:32;;;;;;;6.57;2.58;;;;;;;;;;4920006;29;20035;-75
2023/03/17 09:56:00;;;;;;;4.18;2.17;;;;;;;;;;4916439;29;20039;-77
2023/03/17 09:58:31;;;;;;;5.60;1.90;;;;;;;;;;4919550;29;20032;-76
2023/03/17 10:00:58;;;;;;;6.47;2.10;;;;;;;;;;4903383;29;20052;-81
2023/03/17 10:03:25;;;;;;;6.28;2.22;;;;;;;;;;4912579;29;20122;-82
2023/03/17 10:05:51;;;;;;;5.45;1.83;;;;;;;;;;4917032;29;20046;-77
2023/03/17 10:08:19;;;;;;;3.58;1.63;;;;;;;;;;4922101;29;20107;-80
2023/03/17 10:10:45;;;;;;;5.72;1.73;;;;;;;;;;4921751;29;20512;-77
2023/03/17 10:13:33;;;;;;;5.25;1.63;;;;;;;;;;4920514;29;20020;-77
2023/03/17 10:16:13;;;;;;;5.20;1.80;;;;;;;;;;4893638;29;20032;-79
2023/03/17 10:18:51;;;;;;;4.20;1.52;;;;;;;;;;4902957;29;20025;-78
2023/03/17 10:21:20;;;;;;;2.80;1.30;;;;;;;;;;4912959;29;20028;-73
2023/03/17 10:23:46;;;;;;;3.83;1.45;;;;;;;;;;4912216;29;20032;-76
2023/03/17 10:26:21;;;;;;;4.30;1.42;;;;;;;;;;4914760;29;20036;-76
2023/03/17 10:28:47;;;;;;;3.53;1.75;;;;;;;;;;4921576;29;20079;-77
2023/03/17 10:31:15;;;;;;;5.30;1.48;;;;;;;;;;4921687;29;20059;-76
2023/03/17 10:33:42;;;;;;;3.28;0.93;;;;;;;;;;4921917;29;20021;-79
2023/03/17 10:36:09;;;;;;;3.67;1.40;;;;;;;;;;4917866;29;20029;-77
2023/03/17 10:38:35;;;;;;;5.53;1.25;;;;;;;;;;4921034;29;20111;-78
2023/03/17 10:41:07;;;;;;;4.80;1.20;;;;;;;;;;4920213;29;20110;-76
2023/03/17 10:43:43;;;;;;;3.28;1.20;;;;;;;;;;4912023;29;20029;-78
2023/03/17 10:46:26;;;;;;;3.53;1.35;;;;;;;;;;4916851;29;20406;-78
2023/03/17 10:49:09;;;;;;;6.28;1.35;;;;;;;;;;4913681;29;20032;-78
2023/03/17 10:51:37;;;;;;;2.88;1.10;;;;;;;;;;4918511;29;20028;-79
2023/03/17 10:54:08;;;;;;;4.68;1.73;;;;;;;;;;4919210;29;20389;-79
2023/03/17 10:56:40;;;;;;;2.85;1.40;;;;;;;;;;4918010;29;20060;-79
2023/03/17 10:59:24;;;;;;;3.70;1.37;;;;;;;;;;4920690;29;20091;-78
2023/03/17 11:01:55;;;;;;;5.85;1.35;;;;;;;;;;4913471;29;20100;-75
2023/03/17 11:04:24;;;;;;;4.70;1.30;;;;;;;;;;4913844;29;20028;-76
2023/03/17 11:06:51;;;;;;;4.18;1.40;;;;;;;;;;4915780;29;20037;-76
2023/03/17 11:09:20;;;;;;;4.68;1.45;;;;;;;;;;4918388;29;20103;-78
2023/03/17 11:11:47;;;;;;;3.70;1.25;;;;;;;;;;4914974;29;20389;-77
2023/03/17 11:14:15;;;;;;;3.35;1.20;;;;;;;;;;4914683;29;20107;-76
2023/03/17 11:17:07;;;;;;;2.67;1.15;;;;;;;;;;4914022;29;20115;-76
2023/03/17 11:19:37;;;;;;;4.88;1.23;;;;;;;;;;4907301;29;20032;-74
2023/03/17 11:22:03;;;;;;;3.42;1.20;;;;;;;;;;4915745;29;20028;-74
2023/03/17 11:24:31;;;;;;;3.67;1.40;;;;;;;;;;4919058;29;20034;-78
2023/03/17 11:27:00;;;;;;;3.50;1.30;;;;;;;;;;4917705;29;20060;-78
2023/03/17 11:29:35;;;;;;;4.88;1.40;;;;;;;;;;4917673;29;20036;-76
2023/03/17 11:32:25;;;;;;;6.10;1.60;;;;;;;;;;4917941;29;20020;-80
2023/03/17 11:35:01;;;;;;;2.92;1.30;;;;;;;;;;4900516;29;20123;-82
2023/03/17 11:37:33;;;;;;;5.57;1.60;;;;;;;;;;4902850;29;20028;-71
2023/03/17 11:40:06;;;;;;;3.30;1.27;;;;;;;;;;4914397;29;20036;-71
2023/03/17 11:42:41;;;;;;;3.88;1.50;;;;;;;;;;4913375;29;20497;-70
2023/03/17 11:45:17;;;;;;;3.25;1.20;;;;;;;;;;4913975;29;20043;-70
2023/03/17 11:47:54;;;;;;;2.90;1.10;;;;;;;;;;4911757;29;20053;-71
2023/03/17 11:50:39;;;;;;;2.92;1.10;;;;;;;;;;4913283;29;20428;-69
2023/03/17 11:53:24;;;;;;;3.67;1.08;;;;;;;;;;4911725;29;20028;-71
2023/03/17 11:56:11;;;;;;;5.95;1.17;;;;;;;;;;4902332;29;20379;-77
2023/03/17 11:58:44;;;;;;;2.72;0.80;;;;;;;;;;4906232;29;20563;-77
2023/03/17 12:01:16;;;;;;;4.47;1.20;;;;;;;;;;4910357;29;20127;-70
2023/03/17 12:03:47;;;;;;;3.22;0.95;;;;;;;;;;4909471;29;20059;-69
2023/03/17 12:06:29;;;;;;;2.50;1.00;;;;;;;;;;4914927;29;20091;-67
2023/03/17 12:08:58;;;;;;;4.32;1.17;;;;;;;;;;4913719;29;20084;-74
2023/03/17 12:11:27;;;;;;;1.85;0.90;;;;;;;;;;4907525;29;20040;-72
2023/03/17 12:14:02;;;;;;;2.65;1.13;;;;;;;;;;4909811;29;20052;-73
2023/03/17 12:16:34;;;;;;;3.40;0.90;;;;;;;;;;4904608;29;20025;-73
2023/03/17 12:19:00;;;;;;;1.75;0.82;;;;;;;;;;4910626;29;20020;-73
2023/03/17 12:21:31;;;;;;;3.25;1.10;;;;;;;;;;4916972;29;20382;-72
2023/03/17 12:24:17;;;;;;;4.78;1.08;;;;;;;;;;4911867;29;20122;-74
2023/03/17 12:26:57;;;;;;;2.78;0.90;;;;;;;;;;4920996;29;20039;-72
2023/03/17 12:29:30;;;;;;;5.13;1.10;;;;;;;;;;4920979;29;20111;-72
2023/03/17 12:32:00;;;;;;;5.47;1.00;;;;;;;;;;4923171;29;20028;-75
2023/03/17 12:34:27;;;;;;;4.55;1.00;;;;;;;;;;4910228;29;20036;-71
2023/03/17 12:36:53;;;;;;;2.58;0.82;;;;;;;;;;4911315;29;20028;-73
2023/03/17 12:39:28;;;;;;;2.65;0.73;;;;;;;;;;4919902;29;20032;-73
2023/03/17 12:42:13;;;;;;;2.35;0.80;;;;;;;;;;4914417;29;20031;-74
2023/03/17 12:44:42;;;;;;;4.40;1.23;;;;;;;;;;4920882;29;20639;-74
2023/03/17 12:47:17;;;;;;;2.88;0.80;;;;;;;;;;4918573;29;20048;-73
2023/03/17 12:49:52;;;;;;;4.13;1.10;;;;;;;;;;4917188;29;20066;-73
2023/03/17 12:52:36;;;;;;;2.45;0.80;;;;;;;;;;4920556;29;20446;-74
2023/03/17 12:55:04;;;;;;;3.88;0.98;;;;;;;;;;4914003;29;20477;-73
2023/03/17 12:57:46;;;;;;;4.25;0.90;;;;;;;;;;4911160;29;20110;-72
2023/03/17 13:00:29;;;;;;;3.67;1.08;;;;;;;;;;4910140;29;20683;-74
2023/03/17 13:02:55;;;;;;;;;;;;;;;;;;4922841;29;20036;-72
2023/03/17 13:05:29;;;;;;;3.85;0.90;;;;;;;;;;4914069;29;19911;-73
2023/03/17 13:07:56;;;;;;;3.67;0.98;;;;;;;;;;4910973;29;20033;-72
2023/03/17 13:10:38;;;;;;;3.90;0.98;;;;;;;;;;4918698;29;20441;-74
2023/03/17 13:13:30;;;;;;;7.07;1.20;;;;;;;;;;4915980;29;20032;-72
2023/03/17 13:15:57;;;;;;;3.35;0.88;;;;;;;;;;4908637;29;20056;-74
2023/03/17 13:18:43;;;;;;;5.15;1.00;;;;;;;;;;4921143;29;20088;-74
2023/03/17 13:21:11;;;;;;;5.22;1.08;;;;;;;;;;4920839;29;20028;-72
2023/03/17 13:23:40;;;;;;;3.65;0.90;;;;;;;;;;4919515;29;20067;-75
2023/03/17 13:26:07;;;;;;;3.05;1.08;;;;;;;;;;4917307;29;20386;-77
2023/03/17 13:28:37;;;;;;;3.53;0.93;;;;;;;;;;4921216;29;20061;-77
2023/03/17 13:31:22;;;;;;;8.50;1.20;;;;;;;;;;4917304;29;20030;-80
2023/03/17 13:33:55;;;;;;;4.82;1.17;;;;;;;;;;4919402;29;20043;-77
2023/03/17 13:36:36;;;;;;;4.97;0.80;;;;;;;;;;4918245;29;20024;-81
2023/03/17 13:39:08;;;;;;;5.03;1.00;;;;;;;;;;4915109;29;20032;-73
2023/03/17 13:41:40;;;;;;;3.30;0.60;;;;;;;;;;4909491;29;20064;-78
2023/03/17 13:44:19;;;;;;;1.95;0.68;;;;;;;;;;4910321;29;20035;-79
2023/03/17 13:46:47;;;;;;;4.18;0.80;;;;;;;;;;4920089;29;20048;-78
2023/03/17 13:49:16;;;;;;;5.25;0.98;;;;;;;;;;4912201;29;20457;-77
2023/03/17 13:51:43;;;;;;;3.65;1.08;;;;;;;;;;4918074;29;20837;-76
2023/03/17 13:54:19;;;;;;;3.50;0.88;;;;;;;;;;4921119;29;20028;-81
2023/03/17 13:56:45;;;;;;;5.95;1.00;;;;;;;;;;4922249;29;20031;-76
2023/03/17 13:59:16;;;;;;;4.30;0.75;;;;;;;;;;4919143;29;20040;-77
2023/03/17 14:02:00;;;;;;;3.67;0.90;;;;;;;;;;4921723;29;20035;-78
2023/03/17 14:04:33;;;;;;;2.97;0.68;;;;;;;;;;4922035;29;20052;-77
2023/03/17 14:06:59;;;;;;;;;;;;;;;;;;4921274;29;20020;-76
2023/03/17 14:09:36;;;;;;;3.15;0.75;;;;;;;;;;4921947;29;19907;-76
2023/03/17 14:12:05;;;;;;;6.18;0.80;;;;;;;;;;4918919;29;20036;-77
2023/03/17 14:14:57;;;;;;;3.95;0.80;;;;;;;;;;4910848;29;20035;-76
2023/03/17 14:17:25;;;;;;;2.55;0.70;;;;;;;;;;4904639;29;20044;-75
2023/03/17 14:20:07;;;;;;;3.42;0.80;;;;;;;;;;4918200;29;20036;-75
2023/03/17 14:22:38;;;;;;;1.90;0.70;;;;;;;;;;4911780;29;20035;-80
2023/03/17 14:25:07;;;;;;;4.18;0.80;;;;;;;;;;4919061;29;20060;-78
2023/03/17 14:27:34;;;;;;;3.92;0.90;;;;;;;;;;4916981;29;20028;-77
2023/03/17 14:30:08;;;;;;;4.90;0.90;;;;;;;;;;4919683;29;20047;-77
2023/03/17 14:32:34;;;;;;;4.47;0.73;;;;;;;;;;4921383;29;20020;-79
2023/03/17 14:35:00;;;;;;;4.45;0.95;;;;;;;;;;4918017;29;20025;-79
2023/03/17 14:37:27;;;;;;;2.65;0.75;;;;;;;;;;4911969;29;20039;-75
2023/03/17 14:39:55;;;;;;;2.40;0.70;;;;;;;;;;4909475;29;20068;-74
2023/03/17 14:42:28;;;;;;;3.47;0.90;;;;;;;;;;4914839;29;20031;-77
2023/03/17 14:45:01;;;;;;;3.28;0.80;;;;;;;;;;4908769;29;20029;-76
2023/03/17 14:47:27;;;;;;;3.83;0.60;;;;;;;;;;4923356;29;20044;-76